Forside
METAR-TAF:

METAR-TAF

Lufthavne :

Flughafen Lübeck

Lübeck, Tyskland

Breddekreds: 53-49N, længdekreds: 010-42E, højde: 14 m

Aktuelle vejr

Denne rapport blev lavet for 9 timer og 8 minutter siden, kl. 18:50 UTC
Vind 5 kt fra syd
Temperatur 8°C
Fugtighed 76%
Tryk 1012 hPa
Sigt 10 km eller mere
Brudte skyer i en højde af 2000 ft

METAR: EDHL 171850Z 17005KT 9999 BKN020 08/04 Q1012

Tid: 04:58 (03:58 UTC)

Vejrudsigter

Denne rapport blev lavet for 10 timer og 58 minutter siden, kl. 17:00 UTC
Foreløbig gælder fra 17 på 18 UTC til 17 på 21 UTC
Vind 7 kt fra sydsydvest
Sigt 10 km eller mere
Spredte skyer i en højde af 4000 ft
Midlertidig
fra 17 på 20 UTC til 17 på 21 UTC
Brudte skyer i en højde af 1400 ft

TAF: EDHL 171700Z 1718/1721 20007KT 9999 SCT040 TEMPO 1720/1721 BKN014

Vejrobservationer og prognoser fra mere end 4000 lufthavne (METAR og TAF).

De gule og røde prikker repræsenterer de meteorologiske stationer.

Flyt musen over at se navnet på stationen.

Så klik over at se vejr observationer og prognoser.

At skifte det kort: Klik på de grønne knapper med et sort kors for at zoome ind; på den grønne knap med en bindestreg for at zoome ud; eller på de grønne pile for tilstødende kort.


METAR-TAF: